createdAt,value
2018-04-12T00:00:07.776Z,1.73
2018-04-12T00:02:11.707Z,1.80
2018-04-12T00:04:14.899Z,1.45
2018-04-12T00:06:18.990Z,1.80
2018-04-12T00:08:22.174Z,1.52
2018-04-12T00:10:25.556Z,1.50
2018-04-12T00:12:29.512Z,1.87
2018-04-12T00:14:32.700Z,1.47
2018-04-12T00:16:35.879Z,1.50
2018-04-12T00:18:39.050Z,1.40
2018-04-12T00:20:42.218Z,1.33
2018-04-12T00:22:45.392Z,1.70
2018-04-12T00:24:48.562Z,1.52
2018-04-12T00:26:51.736Z,1.50
2018-04-12T00:28:55.671Z,1.58
2018-04-12T00:30:58.840Z,1.50
2018-04-12T00:33:02.007Z,1.63
2018-04-12T00:35:05.182Z,1.70
2018-04-12T00:37:09.146Z,1.37
2018-04-12T00:39:12.317Z,1.33
2018-04-12T00:41:16.247Z,1.42
2018-04-12T00:43:20.190Z,1.80
2018-04-12T00:45:23.376Z,1.20
2018-04-12T00:47:27.302Z,1.50
2018-04-12T00:49:31.239Z,1.27
2018-04-12T00:51:34.406Z,1.30
2018-04-12T00:53:56.319Z,1.40
2018-04-12T00:55:59.786Z,1.30
2018-04-12T00:58:03.719Z,1.40
2018-04-12T01:00:07.658Z,1.50
2018-04-12T01:02:10.843Z,1.50
2018-04-12T01:04:14.772Z,1.25
2018-04-12T01:06:19.003Z,1.33
2018-04-12T01:08:22.942Z,1.60
2018-04-12T01:10:26.129Z,1.27
2018-04-12T01:12:30.266Z,1.50
2018-04-12T01:14:34.200Z,1.30
2018-04-12T01:16:38.135Z,1.40
2018-04-12T01:18:41.466Z,1.40
2018-04-12T01:20:44.627Z,1.20
2018-04-12T01:22:47.806Z,1.33
2018-04-12T01:24:50.992Z,1.42
2018-04-12T01:26:54.167Z,1.15
2018-04-12T01:28:58.099Z,1.40
2018-04-12T01:31:01.272Z,1.62
2018-04-12T01:33:17.398Z,1.33
2018-04-12T01:35:21.345Z,1.35
2018-04-12T01:37:24.514Z,1.30
2018-04-12T01:39:27.679Z,1.30
2018-04-12T01:41:30.846Z,1.67
2018-04-12T01:43:34.780Z,1.30
2018-04-12T01:45:39.206Z,1.50
2018-04-12T01:47:42.867Z,1.43
2018-04-12T01:49:48.746Z,1.45
2018-04-12T01:51:52.992Z,1.50
2018-04-12T01:53:57.646Z,1.87
2018-04-12T01:56:03.239Z,1.30
2018-04-12T01:58:09.260Z,1.60
2018-04-12T02:00:14.202Z,1.40
2018-04-12T02:02:18.131Z,1.37
2018-04-12T02:04:22.019Z,1.65
2018-04-12T02:06:25.191Z,1.30
2018-04-12T02:08:28.426Z,1.70
2018-04-12T02:10:32.569Z,1.23
2018-04-12T02:12:35.739Z,1.60
2018-04-12T02:14:38.912Z,1.30
2018-04-12T02:16:42.096Z,1.60
2018-04-12T02:18:45.263Z,1.50
2018-04-12T02:20:48.435Z,1.30
2018-04-12T02:22:51.662Z,1.40
2018-04-12T02:24:54.807Z,1.75
2018-04-12T02:26:58.750Z,1.35
2018-04-12T02:29:02.699Z,1.33
2018-04-12T02:31:05.948Z,1.30
2018-04-12T02:33:09.111Z,1.33
2018-04-12T02:35:12.294Z,1.50
2018-04-12T02:37:16.231Z,1.50
2018-04-12T02:39:19.644Z,1.50
2018-04-12T02:41:22.815Z,1.40
2018-04-12T02:43:25.994Z,1.60
2018-04-12T02:45:29.367Z,1.30
2018-04-12T02:47:33.300Z,1.53
2018-04-12T02:49:36.467Z,1.40
2018-04-12T02:51:39.639Z,1.90
2018-04-12T02:53:42.813Z,1.23
2018-04-12T02:55:45.992Z,1.40
2018-04-12T02:57:49.164Z,1.60
2018-04-12T02:59:52.357Z,1.73
2018-04-12T03:01:55.520Z,1.80
2018-04-12T03:03:58.687Z,1.43
2018-04-12T03:06:01.864Z,1.60
2018-04-12T03:08:05.040Z,1.67
2018-04-12T03:10:09.323Z,2.37
2018-04-12T03:12:12.720Z,2.03
2018-04-12T03:14:15.887Z,1.90
2018-04-12T03:16:19.128Z,2.00
2018-04-12T03:18:23.093Z,2.10
2018-04-12T03:20:26.374Z,2.43
2018-04-12T03:22:29.557Z,1.80
2018-04-12T03:24:32.772Z,2.10
2018-04-12T03:26:35.927Z,2.40
2018-04-12T03:28:39.096Z,2.53
2018-04-12T03:30:43.027Z,1.98
2018-04-12T03:32:46.967Z,1.80
2018-04-12T03:34:50.138Z,1.87
2018-04-12T03:36:53.311Z,2.33
2018-04-12T03:38:56.495Z,2.20
2018-04-12T03:40:59.667Z,2.10
2018-04-12T03:43:02.837Z,2.67
2018-04-12T03:45:06.007Z,2.83
2018-04-12T03:47:10.293Z,2.33
2018-04-12T03:49:13.643Z,2.73
2018-04-12T03:51:17.591Z,3.35
2018-04-12T03:53:20.759Z,3.50
2018-04-12T03:55:23.931Z,3.23
2018-04-12T03:57:29.426Z,3.40
2018-04-12T03:59:34.139Z,3.47
2018-04-12T04:01:37.745Z,3.33
2018-04-12T04:03:41.777Z,3.30
2018-04-12T04:05:46.535Z,3.83
2018-04-12T04:07:50.813Z,3.63
2018-04-12T04:09:55.426Z,3.77
2018-04-12T04:12:00.024Z,4.27
2018-04-12T04:14:03.311Z,4.20
2018-04-12T04:16:24.153Z,3.67
2018-04-12T04:18:45.911Z,4.53
2018-04-12T04:23:34.258Z,4.73
2018-04-12T04:25:38.403Z,5.07
2018-04-12T04:27:44.235Z,5.32
2018-04-12T04:29:48.307Z,5.87
2018-04-12T04:31:53.813Z,6.25
2018-04-12T04:33:59.335Z,6.13
2018-04-12T04:36:04.116Z,7.40
2018-04-12T04:38:08.934Z,6.28
2018-04-12T04:40:14.911Z,6.60
2018-04-12T04:42:19.572Z,6.40
2018-04-12T04:44:24.435Z,6.33
2018-04-12T04:46:29.015Z,6.22
2018-04-12T04:48:33.343Z,6.87
2018-04-12T04:50:38.648Z,6.05
2018-04-12T04:52:41.951Z,7.87
2018-04-12T04:54:46.108Z,6.90
2018-04-12T04:56:49.291Z,7.03
2018-04-12T04:58:53.224Z,7.40
2018-04-12T05:00:57.163Z,7.78
2018-04-12T05:03:01.377Z,7.32
2018-04-12T05:05:05.779Z,7.10
2018-04-12T05:07:08.951Z,7.35
2018-04-12T05:09:12.999Z,7.62
2018-04-12T05:11:16.218Z,7.60
2018-04-12T05:13:19.694Z,6.97
2018-04-12T05:15:22.870Z,7.60
2018-04-12T05:17:26.200Z,8.73
2018-04-12T05:19:30.149Z,8.73
2018-04-12T05:21:33.319Z,8.03
2018-04-12T05:23:36.505Z,8.40
2018-04-12T05:25:39.672Z,9.27
2018-04-12T05:27:42.895Z,8.85
2018-04-12T05:29:46.083Z,9.10
2018-04-12T05:31:49.376Z,8.48
2018-04-12T05:33:53.392Z,9.63
2018-04-12T05:35:56.591Z,9.67
2018-04-12T05:37:59.764Z,10.52
2018-04-12T05:40:02.944Z,10.93
2018-04-12T05:42:06.119Z,11.40
2018-04-12T05:44:09.900Z,10.52
2018-04-12T05:46:15.011Z,10.50
2018-04-12T05:48:19.963Z,11.02
2018-04-12T05:50:24.748Z,11.40
2018-04-12T05:52:27.923Z,10.77
2018-04-12T05:54:31.864Z,11.23
2018-04-12T05:56:35.971Z,10.73
2018-04-12T05:58:41.119Z,11.00
2018-04-12T06:00:44.777Z,12.20
2018-04-12T06:02:47.961Z,10.78
2018-04-12T06:04:51.139Z,12.27
2018-04-12T06:06:54.346Z,12.27
2018-04-12T06:08:57.524Z,12.70
2018-04-12T06:11:00.720Z,12.30
2018-04-12T06:13:03.911Z,13.60
2018-04-12T06:15:07.091Z,13.83
2018-04-12T06:17:11.051Z,14.00
2018-04-12T06:19:15.256Z,13.05
2018-04-12T06:21:20.236Z,14.35
2018-04-12T06:23:24.167Z,13.20
2018-04-12T06:25:27.358Z,14.03
2018-04-12T06:27:30.554Z,15.93
2018-04-12T06:29:33.746Z,14.63
2018-04-12T06:31:37.460Z,14.57
2018-04-12T06:33:40.649Z,15.17
2018-04-12T06:35:43.832Z,15.00
2018-04-12T06:37:47.027Z,15.27
2018-04-12T06:39:51.511Z,14.98
2018-04-12T06:41:56.046Z,15.02
2018-04-12T06:43:59.381Z,14.67
2018-04-12T06:46:02.563Z,15.10
2018-04-12T06:48:05.763Z,15.75
2018-04-12T06:50:08.951Z,14.32
2018-04-12T06:52:12.136Z,15.30
2018-04-12T06:54:15.329Z,15.73
2018-04-12T06:56:19.292Z,15.00
2018-04-12T06:58:22.486Z,14.90
2018-04-12T07:00:25.670Z,14.90
2018-04-12T07:02:29.612Z,16.27
2018-04-12T07:04:32.812Z,15.97
2018-04-12T07:06:37.653Z,16.03
2018-04-12T07:08:41.712Z,15.70
2018-04-12T07:10:44.907Z,15.97
2018-04-12T07:12:48.099Z,15.67
2018-04-12T07:14:52.054Z,15.80
2018-04-12T07:16:55.244Z,16.73
2018-04-12T07:18:58.916Z,16.35
2018-04-12T07:21:02.109Z,16.47
2018-04-12T07:23:05.295Z,17.27
2018-04-12T07:25:08.479Z,17.90
2018-04-12T07:27:12.638Z,17.92
2018-04-12T07:29:15.832Z,19.63
2018-04-12T07:31:20.253Z,18.25
2018-04-12T07:33:24.203Z,17.50
2018-04-12T07:35:27.391Z,17.08
2018-04-12T07:37:31.348Z,18.87
2018-04-12T07:39:34.622Z,19.42
2018-04-12T07:41:39.699Z,22.67
2018-04-12T07:43:42.888Z,24.57
2018-04-12T07:45:46.083Z,24.57
2018-04-12T07:47:50.040Z,27.33
2018-04-12T07:49:53.233Z,27.93
2018-04-12T07:51:57.195Z,26.87
2018-04-12T07:54:00.375Z,29.20
2018-04-12T07:56:03.565Z,31.37
2018-04-12T07:58:07.542Z,34.37
2018-04-12T08:00:11.026Z,32.40
2018-04-12T08:02:14.227Z,36.15
2018-04-12T08:04:17.991Z,35.83
2018-04-12T08:06:21.181Z,37.00
2018-04-12T08:08:24.375Z,38.00
2018-04-12T08:10:27.563Z,39.25
2018-04-12T08:12:31.520Z,39.00
2018-04-12T08:14:34.698Z,39.92
2018-04-12T08:16:38.679Z,38.72
2018-04-12T08:18:41.879Z,38.22
2018-04-12T08:20:45.078Z,40.65
2018-04-12T08:22:48.451Z,40.37
2018-04-12T08:24:52.418Z,39.47
2018-04-12T08:26:55.617Z,40.05
2018-04-12T08:28:58.824Z,38.87
2018-04-12T08:31:02.232Z,39.77
2018-04-12T08:33:05.428Z,39.25
2018-04-12T08:35:10.116Z,39.90
2018-04-12T08:37:13.303Z,38.77
2018-04-12T08:39:16.599Z,39.03
2018-04-12T08:41:19.812Z,38.53
2018-04-12T08:43:22.997Z,38.87
2018-04-12T08:45:27.084Z,37.70
2018-04-12T08:47:32.453Z,38.22
2018-04-12T08:49:37.742Z,38.47
2018-04-12T08:51:42.830Z,37.28
2018-04-12T08:53:46.020Z,39.83
2018-04-12T08:55:49.318Z,38.30
2018-04-12T08:57:52.475Z,38.87
2018-04-12T08:59:55.694Z,37.43
2018-04-12T09:02:01.837Z,38.58
2018-04-12T09:04:11.581Z,37.13
2018-04-12T09:06:16.872Z,37.63
2018-04-12T09:08:21.268Z,37.93
2018-04-12T09:10:24.458Z,38.37
2018-04-12T09:12:28.414Z,37.35
2018-04-12T09:14:31.571Z,38.63
2018-04-12T09:16:34.736Z,37.87
2018-04-12T09:18:37.932Z,37.93
2018-04-12T09:20:41.121Z,35.30
2018-04-12T09:22:45.072Z,34.93
2018-04-12T09:24:48.355Z,36.80
2018-04-12T09:26:52.396Z,37.00
2018-04-12T09:28:56.367Z,34.70
2018-04-12T09:30:59.616Z,35.77
2018-04-12T09:33:03.450Z,35.95
2018-04-12T09:35:07.520Z,34.63
2018-04-12T09:37:10.707Z,35.67
2018-04-12T09:39:13.903Z,34.53
2018-04-12T09:41:17.889Z,36.03
2018-04-12T09:43:21.134Z,33.27
2018-04-12T09:45:25.095Z,33.40
2018-04-12T09:47:28.265Z,34.00
2018-04-12T09:49:31.475Z,32.47
2018-04-12T09:51:34.645Z,32.63
2018-04-12T09:53:37.888Z,32.38
2018-04-12T09:55:41.021Z,32.03
2018-04-12T09:57:44.175Z,32.67
2018-04-12T09:59:47.376Z,32.63
2018-04-12T10:02:02.020Z,32.27
2018-04-12T10:04:05.175Z,31.93
2018-04-12T10:06:08.384Z,32.85
2018-04-12T10:08:17.062Z,30.50
2018-04-12T10:10:20.227Z,32.22
2018-04-12T10:12:23.404Z,32.10
2018-04-12T10:14:27.343Z,30.80
2018-04-12T10:16:30.569Z,33.37
2018-04-12T10:18:33.731Z,32.87
2018-04-12T10:20:36.935Z,32.05
2018-04-12T10:22:41.860Z,31.85
2018-04-12T10:24:46.376Z,33.22
2018-04-12T10:26:49.569Z,32.53
2018-04-12T10:28:52.732Z,32.20
2018-04-12T10:30:55.986Z,32.30
2018-04-12T10:32:59.189Z,33.40
2018-04-12T10:35:02.426Z,31.52
2018-04-12T10:37:06.380Z,33.43
2018-04-12T10:39:09.554Z,31.97
2018-04-12T10:41:12.748Z,32.37
2018-04-12T10:43:15.904Z,31.83
2018-04-12T10:45:19.075Z,32.93
2018-04-12T10:47:22.280Z,32.43
2018-04-12T10:49:26.481Z,32.78
2018-04-12T10:51:30.084Z,33.70
2018-04-12T10:53:33.282Z,32.50
2018-04-12T10:55:36.480Z,32.83
2018-04-12T10:57:39.666Z,31.80
2018-04-12T10:59:42.851Z,30.92
2018-04-12T11:01:46.784Z,33.00
2018-04-12T11:03:51.103Z,32.60
2018-04-12T11:05:55.263Z,34.50
2018-04-12T11:07:58.435Z,33.17
2018-04-12T11:10:01.630Z,32.33
2018-04-12T11:12:05.428Z,33.43
2018-04-12T11:14:09.097Z,31.45
2018-04-12T11:16:13.477Z,34.10
2018-04-12T11:18:18.136Z,33.60
2018-04-12T11:20:21.304Z,32.25
2018-04-12T11:22:24.495Z,36.00
2018-04-12T11:24:27.698Z,31.20
2018-04-12T11:26:30.893Z,33.20
2018-04-12T11:28:35.246Z,31.97
2018-04-12T11:30:38.463Z,32.37
2018-04-12T11:32:41.619Z,32.63
2018-04-12T11:34:44.830Z,30.15
2018-04-12T11:36:47.995Z,31.25
2018-04-12T11:38:51.184Z,34.17
2018-04-12T11:40:54.375Z,31.63
2018-04-12T11:42:57.541Z,32.60
2018-04-12T11:45:01.467Z,32.17
2018-04-12T11:47:05.425Z,30.35
2018-04-12T11:49:08.628Z,29.25
2018-04-12T11:51:11.820Z,29.67
2018-04-12T11:53:15.767Z,29.93
2018-04-12T11:55:20.088Z,30.47
2018-04-12T11:57:23.294Z,29.60
2018-04-12T11:59:26.461Z,28.50
2018-04-12T12:01:30.690Z,28.57
2018-04-12T12:03:34.000Z,28.97
2018-04-12T12:05:37.192Z,26.62
2018-04-12T12:07:40.424Z,27.77
2018-04-12T12:09:43.644Z,28.20
2018-04-12T12:11:47.619Z,28.80
2018-04-12T12:13:50.816Z,29.03
2018-04-12T12:15:53.998Z,29.70
2018-04-12T12:17:57.983Z,28.87
2018-04-12T12:20:01.212Z,28.83
2018-04-12T12:22:04.553Z,27.73
2018-04-12T12:24:08.565Z,28.13
2018-04-12T12:26:12.580Z,28.02
2018-04-12T12:28:15.756Z,28.27
2018-04-12T12:30:19.233Z,26.67
2018-04-12T12:32:23.232Z,28.47
2018-04-12T12:34:26.438Z,28.30
2018-04-12T12:36:29.644Z,26.95
2018-04-12T12:38:32.862Z,27.60
2018-04-12T12:40:36.058Z,27.97
2018-04-12T12:42:39.297Z,28.20
2018-04-12T12:44:43.286Z,28.80
2018-04-12T12:46:46.466Z,26.87
2018-04-12T12:48:49.687Z,26.97
2018-04-12T12:50:52.900Z,26.60
2018-04-12T12:52:58.011Z,26.35
2018-04-12T12:55:02.013Z,26.93
2018-04-12T12:57:05.219Z,27.57
2018-04-12T12:59:09.248Z,28.10
2018-04-12T13:01:12.480Z,27.52
2018-04-12T13:03:16.432Z,28.23
2018-04-12T13:05:19.664Z,27.48
2018-04-12T13:07:22.847Z,27.27
2018-04-12T13:09:26.017Z,26.57
2018-04-12T13:11:29.222Z,27.80
2018-04-12T13:13:32.415Z,26.58
2018-04-12T13:15:35.682Z,26.83
2018-04-12T13:17:38.875Z,25.77
2018-04-12T13:19:43.987Z,25.13
2018-04-12T13:21:47.492Z,26.20
2018-04-12T13:23:52.555Z,24.92
2018-04-12T13:25:55.778Z,24.08
2018-04-12T13:27:58.979Z,25.20
2018-04-12T13:30:02.277Z,25.67
2018-04-12T13:32:05.464Z,24.70
2018-04-12T13:34:08.628Z,24.52
2018-04-12T13:36:12.596Z,25.52
2018-04-12T13:38:15.791Z,25.98
2018-04-12T13:40:18.964Z,23.70
2018-04-12T13:42:23.111Z,26.20
2018-04-12T13:44:26.327Z,24.00
2018-04-12T13:46:29.673Z,24.27
2018-04-12T13:48:33.828Z,23.30
2018-04-12T13:50:37.028Z,23.90
2018-04-12T13:52:46.048Z,24.05
2018-04-12T13:54:49.887Z,23.52
2018-04-12T13:56:53.096Z,23.77
2018-04-12T13:58:56.314Z,24.48
2018-04-12T14:00:59.506Z,25.67
2018-04-12T14:03:03.493Z,23.42
2018-04-12T14:05:07.566Z,23.02
2018-04-12T14:07:11.860Z,25.63
2018-04-12T14:09:15.058Z,24.37
2018-04-12T14:11:19.021Z,24.10
2018-04-12T14:13:22.192Z,24.47
2018-04-12T14:15:28.363Z,28.03
2018-04-12T14:17:32.331Z,23.65
2018-04-12T14:19:36.623Z,23.50
2018-04-12T14:21:40.592Z,23.73
2018-04-12T14:23:43.806Z,23.23
2018-04-12T14:25:46.994Z,23.87
2018-04-12T14:27:50.158Z,23.45
2018-04-12T14:29:53.355Z,21.20
2018-04-12T14:31:57.498Z,22.92
2018-04-12T14:34:00.688Z,22.50
2018-04-12T14:36:03.942Z,24.10
2018-04-12T14:38:07.151Z,21.83
2018-04-12T14:40:13.121Z,21.75
2018-04-12T14:42:17.566Z,20.63
2018-04-12T14:44:20.755Z,20.53
2018-04-12T14:46:24.732Z,19.85
2018-04-12T14:48:27.964Z,19.17
2018-04-12T14:50:31.124Z,20.30
2018-04-12T14:52:34.284Z,19.50
2018-04-12T14:54:38.104Z,21.02
2018-04-12T14:56:41.299Z,16.90
2018-04-12T14:58:44.498Z,15.32
2018-04-12T15:00:47.692Z,15.52
2018-04-12T15:02:50.907Z,16.42
2018-04-12T15:04:54.063Z,19.27
2018-04-12T15:06:58.376Z,18.50
2018-04-12T15:09:01.567Z,19.33
2018-04-12T15:11:04.807Z,15.33
2018-04-12T15:13:08.003Z,19.90
2018-04-12T15:15:11.202Z,17.83
2018-04-12T15:17:14.415Z,17.42
2018-04-12T15:19:17.606Z,17.20
2018-04-12T15:21:21.695Z,16.47
2018-04-12T15:23:25.656Z,17.20
2018-04-12T15:25:28.845Z,16.75
2018-04-12T15:27:32.010Z,19.02
2018-04-12T15:29:35.220Z,17.85
2018-04-12T15:31:38.387Z,23.55
2018-04-12T15:33:42.252Z,27.17
2018-04-12T15:35:45.447Z,21.13
2018-04-12T15:37:48.615Z,21.40
2018-04-12T15:39:51.776Z,25.07
2018-04-12T15:41:55.189Z,26.80
2018-04-12T15:43:58.384Z,41.20
2018-04-12T15:46:02.774Z,33.87
2018-04-12T15:48:06.787Z,29.17
2018-04-12T15:50:10.795Z,43.25
2018-04-12T15:52:13.993Z,51.22
2018-04-12T15:54:18.431Z,43.53
2018-04-12T15:56:22.703Z,33.78
2018-04-12T15:58:26.045Z,44.43
2018-04-12T16:00:30.758Z,25.58
2018-04-12T16:02:34.685Z,27.50
2018-04-12T16:04:38.093Z,26.17
2018-04-12T16:06:42.026Z,20.43
2018-04-12T16:08:45.993Z,21.67
2018-04-12T16:10:49.227Z,25.17
2018-04-12T16:12:52.392Z,24.65
2018-04-12T16:14:55.586Z,21.62
2018-04-12T16:16:58.814Z,19.92
2018-04-12T16:19:02.135Z,19.50
2018-04-12T16:21:06.172Z,19.00
2018-04-12T16:23:09.340Z,16.80
2018-04-12T16:25:13.296Z,14.70
2018-04-12T16:27:16.458Z,16.30
2018-04-12T16:29:20.398Z,17.70
2018-04-12T16:31:25.496Z,16.43
2018-04-12T16:33:28.934Z,16.80
2018-04-12T16:35:32.123Z,16.95
2018-04-12T16:37:35.320Z,17.40
2018-04-12T16:39:38.529Z,15.90
2018-04-12T16:41:41.712Z,15.27
2018-04-12T16:43:46.019Z,14.70
2018-04-12T16:45:49.943Z,13.77
2018-04-12T16:47:53.096Z,14.17
2018-04-12T16:49:56.376Z,13.65
2018-04-12T16:51:59.595Z,13.07
2018-04-12T16:54:02.758Z,20.33
2018-04-12T16:56:06.249Z,13.88
2018-04-12T16:58:09.451Z,13.00
2018-04-12T17:00:12.652Z,12.95
2018-04-12T17:02:15.831Z,12.48
2018-04-12T17:04:19.773Z,12.43
2018-04-12T17:06:22.965Z,10.93
2018-04-12T17:08:26.584Z,10.98
2018-04-12T17:10:30.510Z,10.90
2018-04-12T17:12:34.466Z,11.73
2018-04-12T17:14:37.672Z,12.27
2018-04-12T17:16:40.859Z,11.75
2018-04-12T17:18:44.780Z,10.05
2018-04-12T17:20:48.742Z,9.33
2018-04-12T17:22:51.908Z,11.12
2018-04-12T17:24:55.892Z,9.07
2018-04-12T17:26:59.057Z,7.82
2018-04-12T17:29:02.207Z,8.60
2018-04-12T17:31:05.400Z,8.23
2018-04-12T17:33:08.547Z,7.87
2018-04-12T17:35:11.704Z,7.30
2018-04-12T17:37:14.906Z,7.63
2018-04-12T17:39:20.148Z,7.87
2018-04-12T17:41:24.084Z,6.67
2018-04-12T17:43:27.759Z,5.82
2018-04-12T17:45:30.953Z,5.80
2018-04-12T17:47:34.147Z,5.23
2018-04-12T17:49:37.312Z,6.17
2018-04-12T17:51:41.264Z,5.65
2018-04-12T17:53:44.415Z,7.03
2018-04-12T17:55:47.992Z,8.65
2018-04-12T17:57:51.246Z,10.13
2018-04-12T17:59:54.665Z,12.73
2018-04-12T18:01:57.863Z,11.20
2018-04-12T18:04:01.168Z,11.15
2018-04-12T18:06:04.638Z,11.88
2018-04-12T18:08:10.286Z,11.00
2018-04-12T18:10:15.627Z,9.45
2018-04-12T18:12:18.853Z,8.20
2018-04-12T18:14:22.809Z,6.32
2018-04-12T18:16:25.971Z,6.75
2018-04-12T18:18:29.144Z,6.17
2018-04-12T18:20:32.340Z,5.80
2018-04-12T18:22:35.517Z,5.20
2018-04-12T18:24:39.431Z,4.70
2018-04-12T18:26:43.373Z,4.65
2018-04-12T18:28:47.296Z,4.87
2018-04-12T18:30:52.336Z,4.40
2018-04-12T18:32:56.301Z,5.10
2018-04-12T18:34:59.451Z,4.68
2018-04-12T18:37:02.599Z,4.37
2018-04-12T18:39:06.612Z,3.90
2018-04-12T18:41:10.589Z,4.17
2018-04-12T18:43:13.732Z,4.27
2018-04-12T18:45:16.884Z,4.23
2018-04-12T18:47:20.384Z,4.03
2018-04-12T18:49:23.596Z,4.13
2018-04-12T18:51:26.791Z,3.90
2018-04-12T18:53:30.867Z,3.42
2018-04-12T18:55:34.045Z,3.73
2018-04-12T18:57:37.234Z,3.70
2018-04-12T18:59:41.153Z,3.47
2018-04-12T19:01:45.103Z,4.12
2018-04-12T19:03:48.292Z,3.90
2018-04-12T19:05:53.427Z,3.53
2018-04-12T19:07:56.880Z,3.30
2018-04-12T19:10:00.059Z,3.23
2018-04-12T19:12:03.247Z,3.40
2018-04-12T19:14:06.526Z,3.15
2018-04-12T19:16:09.763Z,3.60
2018-04-12T19:18:14.554Z,3.60
2018-04-12T19:20:19.526Z,3.50
2018-04-12T19:22:22.685Z,2.93
2018-04-12T19:24:25.858Z,3.97
2018-04-12T19:26:29.101Z,3.20
2018-04-12T19:28:33.407Z,3.90
2018-04-12T19:30:36.756Z,3.50
2018-04-12T19:32:40.086Z,3.35
2018-04-12T19:34:43.588Z,3.40
2018-04-12T19:36:46.788Z,3.30
2018-04-12T19:38:51.642Z,3.10
2018-04-12T19:40:55.598Z,3.30
2018-04-12T19:42:58.884Z,3.30
2018-04-12T19:45:02.840Z,3.10
2018-04-12T19:47:06.084Z,3.33
2018-04-12T19:49:10.446Z,3.25
2018-04-12T19:51:14.740Z,3.22
2018-04-12T19:53:17.936Z,2.87
2018-04-12T19:55:21.534Z,3.10
2018-04-12T19:57:24.867Z,3.50
2018-04-12T19:59:28.039Z,3.43
2018-04-12T20:01:32.024Z,3.57
2018-04-12T20:03:35.401Z,3.80
2018-04-12T20:05:38.624Z,3.80
2018-04-12T20:07:41.833Z,3.47
2018-04-12T20:09:45.234Z,3.70
2018-04-12T20:11:48.446Z,3.67
2018-04-12T20:13:51.664Z,3.60
2018-04-12T20:15:54.904Z,3.43
2018-04-12T20:17:58.101Z,3.43
2018-04-12T20:20:01.284Z,3.60
2018-04-12T20:22:04.487Z,3.50
2018-04-12T20:24:07.707Z,3.13
2018-04-12T20:26:10.898Z,3.57
2018-04-12T20:28:15.190Z,3.70
2018-04-12T20:30:18.372Z,3.43
2018-04-12T20:32:21.558Z,3.73
2018-04-12T20:34:24.780Z,3.50
2018-04-12T20:36:28.049Z,3.30
2018-04-12T20:38:31.991Z,3.25
2018-04-12T20:40:36.223Z,3.50
2018-04-12T20:42:39.416Z,3.07
2018-04-12T20:44:42.623Z,2.97
2018-04-12T20:46:46.875Z,3.45
2018-04-12T20:48:50.161Z,3.57
2018-04-12T20:50:53.398Z,4.00
2018-04-12T20:52:56.575Z,3.40
2018-04-12T20:54:59.763Z,3.97
2018-04-12T20:57:02.943Z,3.22
2018-04-12T20:59:07.495Z,3.60
2018-04-12T21:01:10.679Z,2.80
2018-04-12T21:03:13.871Z,3.90
2018-04-12T21:05:17.051Z,3.30
2018-04-12T21:07:21.023Z,3.42
2018-04-12T21:09:24.201Z,2.95
2018-04-12T21:11:28.248Z,3.00
2018-04-12T21:13:31.437Z,3.00
2018-04-12T21:15:34.628Z,3.33
2018-04-12T21:17:37.804Z,3.70
2018-04-12T21:19:40.983Z,3.20
2018-04-12T21:21:44.169Z,3.12
2018-04-12T21:23:48.124Z,3.53
2018-04-12T21:25:51.423Z,3.40
2018-04-12T21:27:54.722Z,3.57
2018-04-12T21:29:58.676Z,3.77
2018-04-12T21:32:01.921Z,3.50
2018-04-12T21:34:05.099Z,3.87
2018-04-12T21:36:08.289Z,3.77
2018-04-12T21:38:11.486Z,3.37
2018-04-12T21:40:16.022Z,3.70
2018-04-12T21:42:20.152Z,3.70
2018-04-12T21:44:24.291Z,3.42
2018-04-12T21:46:27.469Z,3.43
2018-04-12T21:48:30.804Z,3.37
2018-04-12T21:50:34.829Z,3.40
2018-04-12T21:52:38.027Z,3.50
2018-04-12T21:54:41.290Z,3.77
2018-04-12T21:56:44.488Z,3.80
2018-04-12T21:58:47.690Z,3.75
2018-04-12T22:00:52.922Z,3.35
2018-04-12T22:02:59.611Z,4.07
2018-04-12T22:05:03.551Z,3.83
2018-04-12T22:07:07.346Z,4.03
2018-04-12T22:09:10.521Z,3.43
2018-04-12T22:11:17.401Z,3.73
2018-04-12T22:13:20.725Z,3.60
2018-04-12T22:15:23.915Z,3.57
2018-04-12T22:17:27.099Z,3.30
2018-04-12T22:19:30.287Z,3.75
2018-04-12T22:21:34.529Z,3.77
2018-04-12T22:23:38.408Z,4.10
2018-04-12T22:25:41.588Z,3.90
2018-04-12T22:27:44.817Z,3.80
2018-04-12T22:29:48.080Z,3.77
2018-04-12T22:31:52.023Z,3.75
2018-04-12T22:33:55.200Z,3.73
2018-04-12T22:35:58.707Z,4.07
2018-04-12T22:38:01.888Z,3.40
2018-04-12T22:40:07.051Z,3.75
2018-04-12T22:42:13.326Z,3.40
2018-04-12T22:44:18.627Z,4.00
2018-04-12T22:46:22.052Z,3.95
2018-04-12T22:48:25.235Z,4.07
2018-04-12T22:50:28.407Z,3.72
2018-04-12T22:52:31.596Z,3.90
2018-04-12T22:54:34.776Z,3.25
2018-04-12T22:56:39.839Z,3.73
2018-04-12T22:58:43.024Z,3.30
2018-04-12T23:00:46.976Z,3.77
2018-04-12T23:02:50.240Z,3.87
2018-04-12T23:04:53.416Z,4.20
2018-04-12T23:06:56.599Z,4.10
2018-04-12T23:08:59.875Z,3.97
2018-04-12T23:11:03.064Z,3.70
2018-04-12T23:13:06.255Z,3.73
2018-04-12T23:15:09.424Z,3.90
2018-04-12T23:17:13.358Z,3.97
2018-04-12T23:19:16.535Z,3.83
2018-04-12T23:21:20.123Z,4.12
2018-04-12T23:23:24.044Z,4.00
2018-04-12T23:25:27.949Z,4.03
2018-04-12T23:27:31.133Z,4.03
2018-04-12T23:29:35.071Z,4.07
2018-04-12T23:31:38.246Z,4.00
2018-04-12T23:33:41.449Z,4.22
2018-04-12T23:35:44.627Z,4.18
2018-04-12T23:37:47.796Z,4.40
2018-04-12T23:39:50.975Z,4.17
2018-04-12T23:41:54.923Z,4.00
2018-04-12T23:43:58.879Z,3.78
2018-04-12T23:46:02.176Z,3.90
2018-04-12T23:48:05.352Z,4.15
2018-04-12T23:50:08.528Z,4.40
2018-04-12T23:52:12.455Z,4.40
2018-04-12T23:54:15.648Z,4.20
2018-04-12T23:56:19.036Z,4.70
2018-04-12T23:58:22.220Z,4.10
